sensor_id;sensor_type;location;lat;lon;timestamp;temperature;humidity
34406;DHT22;20658;45.630;8.886;2023-07-29T00:01:55;21.90;99.90
34406;DHT22;20658;45.630;8.886;2023-07-29T00:04:28;21.90;99.90
34406;DHT22;20658;45.630;8.886;2023-07-29T00:07:02;21.90;99.90
34406;DHT22;20658;45.630;8.886;2023-07-29T00:09:37;21.90;99.90
34406;DHT22;20658;45.630;8.886;2023-07-29T00:12:11;21.90;99.90
34406;DHT22;20658;45.630;8.886;2023-07-29T00:14:44;21.80;99.90
34406;DHT22;20658;45.630;8.886;2023-07-29T00:17:18;21.80;99.90
34406;DHT22;20658;45.630;8.886;2023-07-29T00:19:52;21.70;99.90
34406;DHT22;20658;45.630;8.886;2023-07-29T00:22:26;21.70;99.90
34406;DHT22;20658;45.630;8.886;2023-07-29T00:25:00;21.70;99.90
34406;DHT22;20658;45.630;8.886;2023-07-29T00:27:34;21.70;99.90
34406;DHT22;20658;45.630;8.886;2023-07-29T00:30:08;21.60;99.90
34406;DHT22;20658;45.630;8.886;2023-07-29T00:32:42;21.60;99.90
34406;DHT22;20658;45.630;8.886;2023-07-29T00:35:15;21.60;99.90
34406;DHT22;20658;45.630;8.886;2023-07-29T00:37:49;21.50;99.90
34406;DHT22;20658;45.630;8.886;2023-07-29T00:40:20;21.50;99.90
34406;DHT22;20658;45.630;8.886;2023-07-29T00:42:54;21.50;99.90
34406;DHT22;20658;45.630;8.886;2023-07-29T00:45:29;21.40;99.90
34406;DHT22;20658;45.630;8.886;2023-07-29T00:48:03;21.40;99.90
34406;DHT22;20658;45.630;8.886;2023-07-29T00:50:37;21.40;99.90
34406;DHT22;20658;45.630;8.886;2023-07-29T00:53:11;21.40;99.90
34406;DHT22;20658;45.630;8.886;2023-07-29T00:55:46;21.30;99.90
34406;DHT22;20658;45.630;8.886;2023-07-29T00:58:20;21.30;99.90
34406;DHT22;20658;45.630;8.886;2023-07-29T01:00:54;21.30;99.90
34406;DHT22;20658;45.630;8.886;2023-07-29T01:03:29;21.20;99.90
34406;DHT22;20658;45.630;8.886;2023-07-29T01:06:09;21.20;99.90
34406;DHT22;20658;45.630;8.886;2023-07-29T01:08:52;21.20;99.90
34406;DHT22;20658;45.630;8.886;2023-07-29T01:11:38;21.10;99.90
34406;DHT22;20658;45.630;8.886;2023-07-29T01:14:21;21.10;99.90
34406;DHT22;20658;45.630;8.886;2023-07-29T01:16:56;21.10;99.90
34406;DHT22;20658;45.630;8.886;2023-07-29T01:19:43;21.00;99.90
34406;DHT22;20658;45.630;8.886;2023-07-29T01:22:24;21.00;99.90
34406;DHT22;20658;45.630;8.886;2023-07-29T01:25:00;21.00;99.90
34406;DHT22;20658;45.630;8.886;2023-07-29T01:27:33;21.00;99.90
34406;DHT22;20658;45.630;8.886;2023-07-29T01:30:07;20.90;99.90
34406;DHT22;20658;45.630;8.886;2023-07-29T01:32:46;21.00;99.90
34406;DHT22;20658;45.630;8.886;2023-07-29T01:35:28;20.90;99.90
34406;DHT22;20658;45.630;8.886;2023-07-29T01:38:08;20.90;99.90
34406;DHT22;20658;45.630;8.886;2023-07-29T01:40:46;20.90;99.90
34406;DHT22;20658;45.630;8.886;2023-07-29T01:43:21;20.90;99.90
34406;DHT22;20658;45.630;8.886;2023-07-29T01:45:57;20.90;99.90
34406;DHT22;20658;45.630;8.886;2023-07-29T01:48:31;20.80;99.90
34406;DHT22;20658;45.630;8.886;2023-07-29T01:51:05;20.70;99.90
34406;DHT22;20658;45.630;8.886;2023-07-29T01:53:38;20.60;99.90
34406;DHT22;20658;45.630;8.886;2023-07-29T01:56:13;20.60;99.90
34406;DHT22;20658;45.630;8.886;2023-07-29T01:58:53;20.70;99.90
34406;DHT22;20658;45.630;8.886;2023-07-29T02:01:28;20.60;99.90
34406;DHT22;20658;45.630;8.886;2023-07-29T02:04:02;20.60;99.90
34406;DHT22;20658;45.630;8.886;2023-07-29T02:06:36;20.60;99.90
34406;DHT22;20658;45.630;8.886;2023-07-29T02:09:05;20.60;99.90
34406;DHT22;20658;45.630;8.886;2023-07-29T02:11:39;20.60;99.90
34406;DHT22;20658;45.630;8.886;2023-07-29T02:14:13;20.60;99.90
34406;DHT22;20658;45.630;8.886;2023-07-29T02:16:46;20.60;99.90
34406;DHT22;20658;45.630;8.886;2023-07-29T02:19:20;20.60;99.90
34406;DHT22;20658;45.630;8.886;2023-07-29T02:21:53;20.50;99.90
34406;DHT22;20658;45.630;8.886;2023-07-29T02:24:26;20.50;99.90
34406;DHT22;20658;45.630;8.886;2023-07-29T02:27:01;20.50;99.90
34406;DHT22;20658;45.630;8.886;2023-07-29T02:29:35;20.50;99.90
34406;DHT22;20658;45.630;8.886;2023-07-29T02:32:08;20.50;99.90
34406;DHT22;20658;45.630;8.886;2023-07-29T02:34:42;20.40;99.90
34406;DHT22;20658;45.630;8.886;2023-07-29T02:37:15;20.40;99.90
34406;DHT22;20658;45.630;8.886;2023-07-29T02:39:49;20.40;99.90
34406;DHT22;20658;45.630;8.886;2023-07-29T02:42:24;20.40;99.90
34406;DHT22;20658;45.630;8.886;2023-07-29T02:44:57;20.20;99.90
34406;DHT22;20658;45.630;8.886;2023-07-29T02:47:31;20.30;99.90
34406;DHT22;20658;45.630;8.886;2023-07-29T02:50:05;20.30;99.90
34406;DHT22;20658;45.630;8.886;2023-07-29T02:52:39;20.30;99.90
34406;DHT22;20658;45.630;8.886;2023-07-29T02:55:12;20.30;99.90
34406;DHT22;20658;45.630;8.886;2023-07-29T02:57:47;20.30;99.90
34406;DHT22;20658;45.630;8.886;2023-07-29T03:00:16;20.30;99.90
34406;DHT22;20658;45.630;8.886;2023-07-29T03:02:50;20.20;99.90
34406;DHT22;20658;45.630;8.886;2023-07-29T03:05:23;20.20;99.90
34406;DHT22;20658;45.630;8.886;2023-07-29T03:07:58;20.20;99.90
34406;DHT22;20658;45.630;8.886;2023-07-29T03:10:31;20.20;99.90
34406;DHT22;20658;45.630;8.886;2023-07-29T03:13:08;20.20;99.90
34406;DHT22;20658;45.630;8.886;2023-07-29T03:15:42;20.10;99.90
34406;DHT22;20658;45.630;8.886;2023-07-29T03:18:16;20.10;99.90
34406;DHT22;20658;45.630;8.886;2023-07-29T03:20:49;20.10;99.90
34406;DHT22;20658;45.630;8.886;2023-07-29T03:23:23;20.10;99.90
34406;DHT22;20658;45.630;8.886;2023-07-29T03:25:56;20.10;99.90
34406;DHT22;20658;45.630;8.886;2023-07-29T03:28:32;20.10;99.90
34406;DHT22;20658;45.630;8.886;2023-07-29T03:31:06;20.10;99.90
34406;DHT22;20658;45.630;8.886;2023-07-29T03:33:40;20.10;99.90
34406;DHT22;20658;45.630;8.886;2023-07-29T03:36:14;20.10;99.90
34406;DHT22;20658;45.630;8.886;2023-07-29T03:38:47;20.10;99.90
34406;DHT22;20658;45.630;8.886;2023-07-29T03:41:21;20.10;99.90
34406;DHT22;20658;45.630;8.886;2023-07-29T03:43:55;20.00;99.90
34406;DHT22;20658;45.630;8.886;2023-07-29T03:46:31;20.00;99.90
34406;DHT22;20658;45.630;8.886;2023-07-29T03:49:06;20.00;99.90
34406;DHT22;20658;45.630;8.886;2023-07-29T03:51:40;20.00;99.90
34406;DHT22;20658;45.630;8.886;2023-07-29T03:54:13;20.00;99.90
34406;DHT22;20658;45.630;8.886;2023-07-29T03:56:47;20.00;99.90
34406;DHT22;20658;45.630;8.886;2023-07-29T03:59:21;20.00;99.90
34406;DHT22;20658;45.630;8.886;2023-07-29T04:01:55;20.10;99.90
34406;DHT22;20658;45.630;8.886;2023-07-29T04:04:29;20.10;99.90
34406;DHT22;20658;45.630;8.886;2023-07-29T04:07:03;20.00;99.90
34406;DHT22;20658;45.630;8.886;2023-07-29T04:09:36;20.00;99.90
34406;DHT22;20658;45.630;8.886;2023-07-29T04:12:10;20.00;99.90
34406;DHT22;20658;45.630;8.886;2023-07-29T04:14:45;20.00;99.90
34406;DHT22;20658;45.630;8.886;2023-07-29T04:17:18;20.00;99.90
34406;DHT22;20658;45.630;8.886;2023-07-29T04:19:51;19.90;99.90
34406;DHT22;20658;45.630;8.886;2023-07-29T04:22:31;20.00;99.90
34406;DHT22;20658;45.630;8.886;2023-07-29T04:25:05;20.00;99.90
34406;DHT22;20658;45.630;8.886;2023-07-29T04:27:39;19.90;99.90
34406;DHT22;20658;45.630;8.886;2023-07-29T04:30:14;19.90;99.90
34406;DHT22;20658;45.630;8.886;2023-07-29T04:32:48;20.00;99.90
34406;DHT22;20658;45.630;8.886;2023-07-29T04:35:21;19.90;99.90
34406;DHT22;20658;45.630;8.886;2023-07-29T04:37:55;20.00;99.90
34406;DHT22;20658;45.630;8.886;2023-07-29T04:40:28;20.00;99.90
34406;DHT22;20658;45.630;8.886;2023-07-29T04:43:02;20.00;99.90
34406;DHT22;20658;45.630;8.886;2023-07-29T04:45:42;20.00;99.90
34406;DHT22;20658;45.630;8.886;2023-07-29T04:48:16;20.00;99.90
34406;DHT22;20658;45.630;8.886;2023-07-29T04:50:49;20.10;99.90
34406;DHT22;20658;45.630;8.886;2023-07-29T04:53:23;20.10;99.90
34406;DHT22;20658;45.630;8.886;2023-07-29T04:55:56;20.20;99.90
34406;DHT22;20658;45.630;8.886;2023-07-29T04:58:29;20.10;99.90
34406;DHT22;20658;45.630;8.886;2023-07-29T05:01:07;20.20;99.90
34406;DHT22;20658;45.630;8.886;2023-07-29T05:03:41;20.40;99.90
34406;DHT22;20658;45.630;8.886;2023-07-29T05:06:15;20.60;99.90
34406;DHT22;20658;45.630;8.886;2023-07-29T05:08:48;20.70;99.90
34406;DHT22;20658;45.630;8.886;2023-07-29T05:11:22;20.80;99.90
34406;DHT22;20658;45.630;8.886;2023-07-29T05:13:57;20.90;99.90
34406;DHT22;20658;45.630;8.886;2023-07-29T05:16:31;20.90;99.90
34406;DHT22;20658;45.630;8.886;2023-07-29T05:19:05;20.90;99.90
34406;DHT22;20658;45.630;8.886;2023-07-29T05:21:39;21.00;99.90
34406;DHT22;20658;45.630;8.886;2023-07-29T05:24:12;21.10;99.90
34406;DHT22;20658;45.630;8.886;2023-07-29T05:26:46;21.20;99.90
34406;DHT22;20658;45.630;8.886;2023-07-29T05:29:19;21.20;99.90
34406;DHT22;20658;45.630;8.886;2023-07-29T05:31:54;21.30;99.90
34406;DHT22;20658;45.630;8.886;2023-07-29T05:34:28;21.60;99.90
34406;DHT22;20658;45.630;8.886;2023-07-29T05:37:02;21.90;99.90
34406;DHT22;20658;45.630;8.886;2023-07-29T05:39:35;22.20;99.90
34406;DHT22;20658;45.630;8.886;2023-07-29T05:42:09;22.40;99.90
34406;DHT22;20658;45.630;8.886;2023-07-29T05:44:43;22.60;99.90
34406;DHT22;20658;45.630;8.886;2023-07-29T05:47:20;22.80;99.90
34406;DHT22;20658;45.630;8.886;2023-07-29T05:49:54;23.00;99.90
34406;DHT22;20658;45.630;8.886;2023-07-29T05:52:27;23.20;99.90
34406;DHT22;20658;45.630;8.886;2023-07-29T05:55:01;23.20;99.50
34406;DHT22;20658;45.630;8.886;2023-07-29T05:57:34;23.40;98.80
34406;DHT22;20658;45.630;8.886;2023-07-29T06:00:09;23.70;97.30
34406;DHT22;20658;45.630;8.886;2023-07-29T06:02:45;23.70;96.40
34406;DHT22;20658;45.630;8.886;2023-07-29T06:05:21;23.90;96.10
34406;DHT22;20658;45.630;8.886;2023-07-29T06:07:54;24.10;95.20
34406;DHT22;20658;45.630;8.886;2023-07-29T06:10:28;24.20;94.30
34406;DHT22;20658;45.630;8.886;2023-07-29T06:13:01;24.40;93.70
34406;DHT22;20658;45.630;8.886;2023-07-29T06:15:35;24.40;93.10
34406;DHT22;20658;45.630;8.886;2023-07-29T06:18:10;24.70;92.30
34406;DHT22;20658;45.630;8.886;2023-07-29T06:20:43;25.10;90.90
34406;DHT22;20658;45.630;8.886;2023-07-29T06:23:12;25.30;89.50
34406;DHT22;20658;45.630;8.886;2023-07-29T06:25:45;25.00;90.40
34406;DHT22;20658;45.630;8.886;2023-07-29T06:28:18;25.30;90.00
34406;DHT22;20658;45.630;8.886;2023-07-29T06:30:52;25.40;89.20
34406;DHT22;20658;45.630;8.886;2023-07-29T06:33:27;25.60;88.00
34406;DHT22;20658;45.630;8.886;2023-07-29T06:36:00;25.60;88.70
34406;DHT22;20658;45.630;8.886;2023-07-29T06:38:34;26.00;88.20
34406;DHT22;20658;45.630;8.886;2023-07-29T06:41:07;26.10;87.50
34406;DHT22;20658;45.630;8.886;2023-07-29T06:43:40;26.30;86.90
34406;DHT22;20658;45.630;8.886;2023-07-29T06:46:14;26.40;86.40
34406;DHT22;20658;45.630;8.886;2023-07-29T06:48:49;26.50;86.10
34406;DHT22;20658;45.630;8.886;2023-07-29T06:51:22;26.70;84.60
34406;DHT22;20658;45.630;8.886;2023-07-29T06:53:56;26.40;85.50
34406;DHT22;20658;45.630;8.886;2023-07-29T06:56:29;26.40;85.80
34406;DHT22;20658;45.630;8.886;2023-07-29T06:59:03;26.70;84.80
34406;DHT22;20658;45.630;8.886;2023-07-29T07:01:36;26.90;84.00
34406;DHT22;20658;45.630;8.886;2023-07-29T07:04:11;26.90;82.80
34406;DHT22;20658;45.630;8.886;2023-07-29T07:06:39;27.20;83.30
34406;DHT22;20658;45.630;8.886;2023-07-29T07:09:13;27.50;81.00
34406;DHT22;20658;45.630;8.886;2023-07-29T07:11:46;27.20;81.70
34406;DHT22;20658;45.630;8.886;2023-07-29T07:14:19;27.10;82.60
34406;DHT22;20658;45.630;8.886;2023-07-29T07:16:53;27.40;81.80
34406;DHT22;20658;45.630;8.886;2023-07-29T07:19:28;27.60;80.80
34406;DHT22;20658;45.630;8.886;2023-07-29T07:22:01;27.70;80.70
34406;DHT22;20658;45.630;8.886;2023-07-29T07:24:34;28.00;80.00
34406;DHT22;20658;45.630;8.886;2023-07-29T07:27:08;28.00;79.00
34406;DHT22;20658;45.630;8.886;2023-07-29T07:29:41;28.10;78.80
34406;DHT22;20658;45.630;8.886;2023-07-29T07:32:15;28.20;77.80
34406;DHT22;20658;45.630;8.886;2023-07-29T07:34:50;28.20;78.00
34406;DHT22;20658;45.630;8.886;2023-07-29T07:37:23;28.20;77.50
34406;DHT22;20658;45.630;8.886;2023-07-29T07:39:57;28.00;78.40
34406;DHT22;20658;45.630;8.886;2023-07-29T07:42:30;27.90;78.20
34406;DHT22;20658;45.630;8.886;2023-07-29T07:45:04;28.00;77.90
34406;DHT22;20658;45.630;8.886;2023-07-29T07:47:38;28.10;77.60
34406;DHT22;20658;45.630;8.886;2023-07-29T07:50:13;28.50;76.80
34406;DHT22;20658;45.630;8.886;2023-07-29T07:52:47;28.30;76.20
34406;DHT22;20658;45.630;8.886;2023-07-29T07:55:20;28.00;76.60
34406;DHT22;20658;45.630;8.886;2023-07-29T07:57:54;28.20;76.70
34406;DHT22;20658;45.630;8.886;2023-07-29T08:00:27;28.60;76.00
34406;DHT22;20658;45.630;8.886;2023-07-29T08:03:01;28.70;75.20
34406;DHT22;20658;45.630;8.886;2023-07-29T08:05:36;28.70;74.40
34406;DHT22;20658;45.630;8.886;2023-07-29T08:08:09;28.90;73.70
34406;DHT22;20658;45.630;8.886;2023-07-29T08:10:43;28.50;73.60
34406;DHT22;20658;45.630;8.886;2023-07-29T08:13:16;28.80;73.40
34406;DHT22;20658;45.630;8.886;2023-07-29T08:15:51;29.10;73.30
34406;DHT22;20658;45.630;8.886;2023-07-29T08:18:26;29.30;72.20
34406;DHT22;20658;45.630;8.886;2023-07-29T08:21:01;29.90;70.70
34406;DHT22;20658;45.630;8.886;2023-07-29T08:23:36;29.90;69.80
34406;DHT22;20658;45.630;8.886;2023-07-29T08:26:09;29.80;69.00
34406;DHT22;20658;45.630;8.886;2023-07-29T08:28:43;30.00;69.30
34406;DHT22;20658;45.630;8.886;2023-07-29T08:31:16;30.30;68.00
34406;DHT22;20658;45.630;8.886;2023-07-29T08:33:50;30.00;68.40
34406;DHT22;20658;45.630;8.886;2023-07-29T08:36:25;30.40;67.10
34406;DHT22;20658;45.630;8.886;2023-07-29T08:38:58;30.70;65.60
34406;DHT22;20658;45.630;8.886;2023-07-29T08:41:37;30.30;66.10
34406;DHT22;20658;45.630;8.886;2023-07-29T08:44:20;30.60;65.40
34406;DHT22;20658;45.630;8.886;2023-07-29T08:46:56;30.30;66.10
34406;DHT22;20658;45.630;8.886;2023-07-29T08:49:30;30.50;65.90
34406;DHT22;20658;45.630;8.886;2023-07-29T08:52:07;30.60;64.10
34406;DHT22;20658;45.630;8.886;2023-07-29T08:54:40;30.70;63.80
34406;DHT22;20658;45.630;8.886;2023-07-29T08:57:14;30.70;62.30
34406;DHT22;20658;45.630;8.886;2023-07-29T08:59:47;30.10;64.40
34406;DHT22;20658;45.630;8.886;2023-07-29T09:02:21;30.30;65.00
34406;DHT22;20658;45.630;8.886;2023-07-29T09:04:54;30.50;64.40
34406;DHT22;20658;45.630;8.886;2023-07-29T09:07:29;30.60;64.30
34406;DHT22;20658;45.630;8.886;2023-07-29T09:10:03;30.60;64.50
34406;DHT22;20658;45.630;8.886;2023-07-29T09:12:37;30.80;62.30
34406;DHT22;20658;45.630;8.886;2023-07-29T09:15:11;30.50;62.50
34406;DHT22;20658;45.630;8.886;2023-07-29T09:17:44;30.60;62.50
34406;DHT22;20658;45.630;8.886;2023-07-29T09:20:24;31.30;62.50
34406;DHT22;20658;45.630;8.886;2023-07-29T09:22:59;31.40;61.50
34406;DHT22;20658;45.630;8.886;2023-07-29T09:25:33;31.50;59.50
34406;DHT22;20658;45.630;8.886;2023-07-29T09:28:11;31.70;59.80
34406;DHT22;20658;45.630;8.886;2023-07-29T09:30:46;32.00;59.30
34406;DHT22;20658;45.630;8.886;2023-07-29T09:33:27;32.40;57.90
34406;DHT22;20658;45.630;8.886;2023-07-29T09:36:07;32.10;58.60
34406;DHT22;20658;45.630;8.886;2023-07-29T09:38:44;32.20;58.40
34406;DHT22;20658;45.630;8.886;2023-07-29T09:41:17;32.10;58.20
34406;DHT22;20658;45.630;8.886;2023-07-29T09:43:56;32.00;58.10
34406;DHT22;20658;45.630;8.886;2023-07-29T09:46:33;31.60;59.20
34406;DHT22;20658;45.630;8.886;2023-07-29T09:49:08;31.30;59.70
34406;DHT22;20658;45.630;8.886;2023-07-29T09:51:41;30.90;59.50
34406;DHT22;20658;45.630;8.886;2023-07-29T09:54:16;30.30;62.10
34406;DHT22;20658;45.630;8.886;2023-07-29T09:56:50;30.90;61.20
34406;DHT22;20658;45.630;8.886;2023-07-29T09:59:24;31.10;60.10
34406;DHT22;20658;45.630;8.886;2023-07-29T10:01:57;31.40;59.30
34406;DHT22;20658;45.630;8.886;2023-07-29T10:04:31;31.50;58.50
34406;DHT22;20658;45.630;8.886;2023-07-29T10:07:05;31.60;57.90
34406;DHT22;20658;45.630;8.886;2023-07-29T10:09:41;32.30;57.10
34406;DHT22;20658;45.630;8.886;2023-07-29T10:12:15;32.50;56.50
34406;DHT22;20658;45.630;8.886;2023-07-29T10:14:49;32.50;55.50
34406;DHT22;20658;45.630;8.886;2023-07-29T10:17:24;32.90;54.80
34406;DHT22;20658;45.630;8.886;2023-07-29T10:19:59;33.00;55.20
34406;DHT22;20658;45.630;8.886;2023-07-29T10:22:35;33.20;54.50
34406;DHT22;20658;45.630;8.886;2023-07-29T10:25:16;33.20;55.00
34406;DHT22;20658;45.630;8.886;2023-07-29T10:27:59;33.50;53.40
34406;DHT22;20658;45.630;8.886;2023-07-29T10:30:36;33.40;53.20
34406;DHT22;20658;45.630;8.886;2023-07-29T10:33:10;34.00;53.50
34406;DHT22;20658;45.630;8.886;2023-07-29T10:35:44;33.50;53.20
34406;DHT22;20658;45.630;8.886;2023-07-29T10:38:19;33.60;53.60
34406;DHT22;20658;45.630;8.886;2023-07-29T10:40:56;33.80;52.10
34406;DHT22;20658;45.630;8.886;2023-07-29T10:43:32;34.20;51.10
34406;DHT22;20658;45.630;8.886;2023-07-29T10:46:18;34.00;50.80
34406;DHT22;20658;45.630;8.886;2023-07-29T10:48:53;34.30;51.00
34406;DHT22;20658;45.630;8.886;2023-07-29T10:51:29;34.50;50.50
34406;DHT22;20658;45.630;8.886;2023-07-29T10:54:10;33.60;50.80
34406;DHT22;20658;45.630;8.886;2023-07-29T10:56:48;33.70;51.50
34406;DHT22;20658;45.630;8.886;2023-07-29T10:59:32;34.00;51.70
34406;DHT22;20658;45.630;8.886;2023-07-29T11:02:15;34.50;51.30
34406;DHT22;20658;45.630;8.886;2023-07-29T11:04:51;34.80;49.60
34406;DHT22;20658;45.630;8.886;2023-07-29T11:07:25;35.20;49.40
34406;DHT22;20658;45.630;8.886;2023-07-29T11:10:03;35.10;49.80
34406;DHT22;20658;45.630;8.886;2023-07-29T11:12:41;35.40;48.20
34406;DHT22;20658;45.630;8.886;2023-07-29T11:15:24;35.50;47.50
34406;DHT22;20658;45.630;8.886;2023-07-29T11:17:59;34.70;48.50
34406;DHT22;20658;45.630;8.886;2023-07-29T11:20:34;34.60;49.30
34406;DHT22;20658;45.630;8.886;2023-07-29T11:23:07;35.00;48.40
34406;DHT22;20658;45.630;8.886;2023-07-29T11:25:40;35.30;47.50
34406;DHT22;20658;45.630;8.886;2023-07-29T11:28:15;34.90;46.80
34406;DHT22;20658;45.630;8.886;2023-07-29T11:30:50;34.60;48.70
34406;DHT22;20658;45.630;8.886;2023-07-29T11:33:25;35.10;48.40
34406;DHT22;20658;45.630;8.886;2023-07-29T11:36:00;35.40;47.50
34406;DHT22;20658;45.630;8.886;2023-07-29T11:38:33;35.40;46.00
34406;DHT22;20658;45.630;8.886;2023-07-29T11:41:09;35.40;46.80
34406;DHT22;20658;45.630;8.886;2023-07-29T11:43:40;35.70;46.50
34406;DHT22;20658;45.630;8.886;2023-07-29T11:46:13;35.20;46.80
34406;DHT22;20658;45.630;8.886;2023-07-29T11:48:47;34.70;47.30
34406;DHT22;20658;45.630;8.886;2023-07-29T11:51:16;35.00;47.50
34406;DHT22;20658;45.630;8.886;2023-07-29T11:53:51;35.40;46.10
34406;DHT22;20658;45.630;8.886;2023-07-29T11:56:25;35.50;45.20
34406;DHT22;20658;45.630;8.886;2023-07-29T11:59:01;35.70;45.40
34406;DHT22;20658;45.630;8.886;2023-07-29T12:01:31;34.70;45.70
34406;DHT22;20658;45.630;8.886;2023-07-29T12:04:04;34.50;46.40
34406;DHT22;20658;45.630;8.886;2023-07-29T12:06:38;34.30;46.00
34406;DHT22;20658;45.630;8.886;2023-07-29T12:09:12;34.10;47.40
34406;DHT22;20658;45.630;8.886;2023-07-29T12:11:41;34.10;47.00
34406;DHT22;20658;45.630;8.886;2023-07-29T12:14:18;33.30;48.40
34406;DHT22;20658;45.630;8.886;2023-07-29T12:16:51;32.80;49.70
34406;DHT22;20658;45.630;8.886;2023-07-29T12:19:31;32.90;49.20
34406;DHT22;20658;45.630;8.886;2023-07-29T12:22:07;33.50;48.60
34406;DHT22;20658;45.630;8.886;2023-07-29T12:24:41;33.90;48.00
34406;DHT22;20658;45.630;8.886;2023-07-29T12:27:14;34.40;47.40
34406;DHT22;20658;45.630;8.886;2023-07-29T12:29:51;35.10;46.70
34406;DHT22;20658;45.630;8.886;2023-07-29T12:32:25;34.80;46.00
34406;DHT22;20658;45.630;8.886;2023-07-29T12:34:59;35.30;45.60
34406;DHT22;20658;45.630;8.886;2023-07-29T12:37:32;35.50;44.30
34406;DHT22;20658;45.630;8.886;2023-07-29T12:40:07;35.80;44.10
34406;DHT22;20658;45.630;8.886;2023-07-29T12:42:36;36.00;44.30
34406;DHT22;20658;45.630;8.886;2023-07-29T12:45:10;36.40;43.50
34406;DHT22;20658;45.630;8.886;2023-07-29T12:47:44;36.40;41.80
34406;DHT22;20658;45.630;8.886;2023-07-29T12:50:17;36.80;41.80
34406;DHT22;20658;45.630;8.886;2023-07-29T12:52:51;36.70;42.20
34406;DHT22;20658;45.630;8.886;2023-07-29T12:55:24;36.50;42.80
34406;DHT22;20658;45.630;8.886;2023-07-29T12:57:58;36.10;42.90
34406;DHT22;20658;45.630;8.886;2023-07-29T13:00:33;35.90;43.50
34406;DHT22;20658;45.630;8.886;2023-07-29T13:03:06;35.90;42.90
34406;DHT22;20658;45.630;8.886;2023-07-29T13:05:40;35.80;42.40
34406;DHT22;20658;45.630;8.886;2023-07-29T13:08:13;35.00;44.10
34406;DHT22;20658;45.630;8.886;2023-07-29T13:10:46;34.90;43.90
34406;DHT22;20658;45.630;8.886;2023-07-29T13:13:20;35.00;44.70
34406;DHT22;20658;45.630;8.886;2023-07-29T13:15:55;34.90;43.70
34406;DHT22;20658;45.630;8.886;2023-07-29T13:18:28;34.90;44.10
34406;DHT22;20658;45.630;8.886;2023-07-29T13:21:02;35.20;43.60
34406;DHT22;20658;45.630;8.886;2023-07-29T13:23:35;35.70;42.80
34406;DHT22;20658;45.630;8.886;2023-07-29T13:26:09;35.90;42.40
34406;DHT22;20658;45.630;8.886;2023-07-29T13:28:43;36.40;42.10
34406;DHT22;20658;45.630;8.886;2023-07-29T13:31:17;36.40;41.20
34406;DHT22;20658;45.630;8.886;2023-07-29T13:33:51;36.50;41.10
34406;DHT22;20658;45.630;8.886;2023-07-29T13:36:24;36.60;40.40
34406;DHT22;20658;45.630;8.886;2023-07-29T13:38:57;36.50;41.00
34406;DHT22;20658;45.630;8.886;2023-07-29T13:41:31;36.00;40.60
34406;DHT22;20658;45.630;8.886;2023-07-29T13:44:04;35.30;41.60
34406;DHT22;20658;45.630;8.886;2023-07-29T13:46:39;34.30;43.50
34406;DHT22;20658;45.630;8.886;2023-07-29T13:49:13;33.80;43.50
34406;DHT22;20658;45.630;8.886;2023-07-29T13:51:46;33.40;44.30
34406;DHT22;20658;45.630;8.886;2023-07-29T13:54:20;33.90;43.00
34406;DHT22;20658;45.630;8.886;2023-07-29T13:56:54;34.30;42.90
34406;DHT22;20658;45.630;8.886;2023-07-29T13:59:27;34.60;42.80
34406;DHT22;20658;45.630;8.886;2023-07-29T14:02:02;35.30;42.60
34406;DHT22;20658;45.630;8.886;2023-07-29T14:04:36;35.30;41.10
34406;DHT22;20658;45.630;8.886;2023-07-29T14:07:09;35.20;42.10
34406;DHT22;20658;45.630;8.886;2023-07-29T14:09:43;35.50;41.60
34406;DHT22;20658;45.630;8.886;2023-07-29T14:12:11;35.60;41.30
34406;DHT22;20658;45.630;8.886;2023-07-29T14:14:46;35.30;41.80
34406;DHT22;20658;45.630;8.886;2023-07-29T14:17:21;34.10;43.10
34406;DHT22;20658;45.630;8.886;2023-07-29T14:19:54;33.70;43.50
34406;DHT22;20658;45.630;8.886;2023-07-29T14:22:28;33.60;43.80
34406;DHT22;20658;45.630;8.886;2023-07-29T14:25:01;33.50;44.10
34406;DHT22;20658;45.630;8.886;2023-07-29T14:27:35;33.70;44.40
34406;DHT22;20658;45.630;8.886;2023-07-29T14:30:09;34.40;43.30
34406;DHT22;20658;45.630;8.886;2023-07-29T14:32:39;34.70;42.80
34406;DHT22;20658;45.630;8.886;2023-07-29T14:35:12;34.40;42.40
34406;DHT22;20658;45.630;8.886;2023-07-29T14:37:46;34.00;42.80
34406;DHT22;20658;45.630;8.886;2023-07-29T14:40:19;33.90;42.80
34406;DHT22;20658;45.630;8.886;2023-07-29T14:42:52;33.60;43.10
34406;DHT22;20658;45.630;8.886;2023-07-29T14:45:26;33.50;43.00
34406;DHT22;20658;45.630;8.886;2023-07-29T14:48:01;33.60;43.00
34406;DHT22;20658;45.630;8.886;2023-07-29T14:50:34;33.60;42.80
34406;DHT22;20658;45.630;8.886;2023-07-29T14:53:08;34.30;42.40
34406;DHT22;20658;45.630;8.886;2023-07-29T14:55:41;35.20;40.50
34406;DHT22;20658;45.630;8.886;2023-07-29T14:58:15;35.40;39.30
34406;DHT22;20658;45.630;8.886;2023-07-29T15:00:49;35.20;39.00
34406;DHT22;20658;45.630;8.886;2023-07-29T15:03:19;34.80;39.60
34406;DHT22;20658;45.630;8.886;2023-07-29T15:05:52;34.50;40.30
34406;DHT22;20658;45.630;8.886;2023-07-29T15:08:26;34.10;42.00
34406;DHT22;20658;45.630;8.886;2023-07-29T15:10:59;33.70;42.90
34406;DHT22;20658;45.630;8.886;2023-07-29T15:13:33;33.50;43.70
34406;DHT22;20658;45.630;8.886;2023-07-29T15:16:06;33.40;44.20
34406;DHT22;20658;45.630;8.886;2023-07-29T15:18:41;33.20;44.10
34406;DHT22;20658;45.630;8.886;2023-07-29T15:21:15;33.00;44.50
34406;DHT22;20658;45.630;8.886;2023-07-29T15:23:49;32.70;44.50
34406;DHT22;20658;45.630;8.886;2023-07-29T15:26:22;32.70;45.10
34406;DHT22;20658;45.630;8.886;2023-07-29T15:29:00;32.40;45.60
34406;DHT22;20658;45.630;8.886;2023-07-29T15:31:33;32.00;46.10
34406;DHT22;20658;45.630;8.886;2023-07-29T15:34:08;32.20;46.00
34406;DHT22;20658;45.630;8.886;2023-07-29T15:36:42;32.40;45.10
34406;DHT22;20658;45.630;8.886;2023-07-29T15:39:15;32.50;45.10
34406;DHT22;20658;45.630;8.886;2023-07-29T15:41:48;32.60;44.50
34406;DHT22;20658;45.630;8.886;2023-07-29T15:44:22;33.40;43.40
34406;DHT22;20658;45.630;8.886;2023-07-29T15:46:55;33.50;43.60
34406;DHT22;20658;45.630;8.886;2023-07-29T15:49:31;33.10;44.40
34406;DHT22;20658;45.630;8.886;2023-07-29T15:52:04;32.40;45.70
34406;DHT22;20658;45.630;8.886;2023-07-29T15:54:40;32.20;46.60
34406;DHT22;20658;45.630;8.886;2023-07-29T15:57:14;31.90;46.20
34406;DHT22;20658;45.630;8.886;2023-07-29T15:59:47;31.60;47.10
34406;DHT22;20658;45.630;8.886;2023-07-29T16:02:20;31.60;47.90
34406;DHT22;20658;45.630;8.886;2023-07-29T16:04:55;31.60;47.80
34406;DHT22;20658;45.630;8.886;2023-07-29T16:07:28;31.60;47.40
34406;DHT22;20658;45.630;8.886;2023-07-29T16:10:02;31.70;46.80
34406;DHT22;20658;45.630;8.886;2023-07-29T16:12:36;32.20;46.80
34406;DHT22;20658;45.630;8.886;2023-07-29T16:15:10;32.70;45.60